Flight Track Log - Related Links

Times and Time Zones

All times are in EDT time to prevent confusion due to time zone crossing. See the DAL1413 flight status page for this flight to view local times or setup timezone preferences in your user account.

Time Position Orientation Groundspeed Altitude Reporting Facility
EDT Latitude Longitude Course Direction KTS MPH feet Rate Location/Type
Wed 07:59:52 PM 33.6581 -84.3533 268° West 426 490 3,600  Level Atlanta Center
Wed 08:00:16 PM 33.6667 -84.3333 63° Northeast 218 251 4,200 1,714 Climbing Atlanta TRACON
Wed 08:01:16 PM 33.7167 -84.2667 48° Northeast 264 304 6,000 2,000 Climbing Atlanta TRACON
Wed 08:02:00 PM 33.6957 -84.9698 280° West  Level FlightAware
Wed 08:02:10 PM 33.7833 -84.2833 348° North 280 322 8,000  Level Atlanta TRACON
Wed 08:03:00 PM 33.7154 -85.1075 280° West  Level FlightAware
Wed 08:03:52 PM 33.8042 -84.4214 280° West 248 285 10,800  Level Atlanta Center
Wed 08:04:00 PM 33.7156 -85.2470 268° West  Level FlightAware
Wed 08:04:52 PM 33.7933 -84.5361 264° West 303 349 11,700  Level Atlanta Center
Wed 08:05:00 PM 33.7108 -85.3865 268° West  Level FlightAware
Wed 08:05:52 PM 33.7864 -84.6711 266° West 357 411 13,400  Level Atlanta Center
Wed 08:06:52 PM 33.7817 -84.7836 267° West 372 428 15,100 1,900 Climbing Atlanta Center
Wed 08:08:52 PM 33.7528 -85.0331 262° West 366 421 19,100 1,733 Climbing Atlanta Center
Wed 08:09:52 PM 33.7414 -85.1481 263° West 361 415 20,300 900 Climbing Atlanta Center
Wed 08:10:52 PM 33.7297 -85.2653 263° West 356 410 20,900 550 Climbing Atlanta Center
Wed 08:11:52 PM 33.7139 -85.3775 260° West 372 428 21,400 500 Climbing Atlanta Center
Wed 08:12:52 PM 33.7250 -85.5075 276° West 383 441 21,900 550 Climbing Atlanta Center
Wed 08:13:52 PM 33.7483 -85.6403 282° West 401 461 22,500 700 Climbing Atlanta Center
Wed 08:14:52 PM 33.7778 -85.7733 285° West 415 478 23,300 750 Climbing Atlanta Center
Wed 08:15:52 PM 33.8072 -85.9139 284° West 406 467 24,000 800 Climbing Atlanta Center
Wed 08:16:52 PM 33.8361 -86.0544 284° West 411 473 24,900 950 Climbing Atlanta Center
Wed 08:17:52 PM 33.8653 -86.1953 284° West 425 489 25,900 867 Climbing Atlanta Center
Wed 08:19:00 PM 33.8824 -86.3288 279° West  Level FlightAware
Wed 08:19:52 PM 33.9222 -86.4847 279° West 437 503 27,500  Level Atlanta Center
Wed 08:20:52 PM 33.9506 -86.6306 283° West 442 509 28,600 1,050 Climbing Atlanta Center
Wed 08:21:52 PM 33.9808 -86.7744 284° West 442 509 29,600 275 Climbing Atlanta Center
Wed 08:24:00 PM 33.9900 -86.9131 275° West  Level FlightAware
Wed 08:25:57 PM 34.1053 -87.3619 280° West 451 519 30,000  Level Memphis Center
Wed 08:26:57 PM 34.1381 -87.5114 285° West 456 525 30,000  Level Memphis Center
Wed 08:27:57 PM 34.1703 -87.6558 285° West 456 525 30,000  Level Memphis Center
Wed 08:28:57 PM 34.2028 -87.8056 285° West 456 525 30,000  Level Memphis Center
Wed 08:29:57 PM 34.2392 -87.9528 287° West 456 525 30,000 300 Level Memphis Center
Wed 08:31:00 PM 34.1103 -87.8336 280° West  Level FlightAware
Wed 08:31:00 PM 34.2048 -88.0860 253° West  Level FlightAware
Wed 08:31:57 PM 34.3094 -88.2675 253° West 458 527 30,900  Level Memphis Center
Wed 08:32:57 PM 34.3472 -88.4100 288° West 458 527 31,800 550 Climbing Memphis Center
Wed 08:33:57 PM 34.3869 -88.5500 289° West 451 519 32,000 100 Climbing Memphis Center
Wed 08:34:57 PM 34.4181 -88.6903 285° West 441 507 32,000  Level Memphis Center
Wed 08:35:57 PM 34.4533 -88.8283 287° West 435 501 32,000  Level Memphis Center
Wed 08:36:57 PM 34.4781 -88.9764 281° West 435 501 32,000  Level Memphis Center
Wed 08:37:57 PM 34.5025 -89.1222 282° West 452 520 32,000  Level Memphis Center
Wed 08:39:00 PM 34.5021 -89.2438 270° West  Level FlightAware
Wed 08:39:57 PM 34.5114 -89.4269 270° West 447 514 32,000  Level Memphis Center
Wed 08:40:57 PM 34.5125 -89.5656 271° West 453 521 32,000 -700 Level Memphis Center
Wed 08:41:57 PM 34.5111 -89.7219 269° West 464 534 30,600 -1,500 Descending Memphis Center
Wed 08:42:57 PM 34.5139 -89.8808 271° West 469 540 29,000 -1,850 Descending Memphis Center
Wed 08:43:57 PM 34.5125 -90.0597 270° West 475 547 26,900 -1,700 Descending Memphis Center
Wed 08:44:57 PM 34.5169 -90.2161 272° West 475 547 25,600 -967 Descending Memphis Center
Wed 08:46:00 PM 34.5553 -90.3342 277° West  Level FlightAware
Wed 08:46:57 PM 34.5275 -90.5261 277° West 470 541 24,000  Level Memphis Center
Wed 08:47:57 PM 34.5311 -90.6747 272° West 455 524 24,000 -300 Level Memphis Center
Wed 08:48:57 PM 34.5328 -90.8311 271° West 455 524 23,400 -1,850 Descending Memphis Center
Wed 08:49:57 PM 34.5428 -90.9775 275° West 455 524 20,300 -2,650 Descending Memphis Center
Wed 08:50:57 PM 34.5567 -91.1061 278° West 445 512 18,100 -2,400 Descending Memphis Center
Wed 08:51:57 PM 34.5767 -91.2400 280° West 423 487 15,500 -2,739 Descending Memphis Center
Wed 08:52:29 PM 34.5886 -91.3208 280° West 386 444 13,900 -2,500 Descending Memphis Center
Wed 08:52:57 PM 34.5986 -91.3689 284° West 402 463 13,000 -2,852 Descending Memphis Center
Wed 08:53:30 PM 34.6083 -91.4497 278° West 374 430 11,000 -2,800 Descending Memphis Center
Wed 08:53:57 PM 34.6164 -91.4928 283° West 381 438 10,200 -1,000 Descending Memphis Center
Wed 08:54:30 PM 34.6281 -91.5661 281° West 359 413 10,000 -400 Descending Memphis Center
Wed 08:54:57 PM 34.6339 -91.6042 281° West 355 409 9,800 -984 Descending Memphis Center
Wed 08:55:31 PM 34.6394 -91.6747 275° West 295 339 9,000 -1,400 Descending Memphis Center
Wed 08:55:57 PM 34.6433 -91.7078 278° West 320 368 8,400 -1,700 Descending Memphis Center
Wed 08:56:31 PM 34.6447 -91.7708 272° West 290 334 7,300 23,600 Descending Memphis Center
Wed 08:56:57 PM 34.6528 -91.8011 288° West 302 348 32,000 -2,262 Climbing Memphis Center
Wed 08:57:32 PM 34.6497 -91.8769 267° West 297 342 5,000 -27,500 Descending Memphis Center
Wed 08:57:57 PM 34.6536 -91.9022 281° West 302 348 4,500 -1,475 Descending Memphis Center
Wed 08:58:33 PM 34.6547 -91.9678 271° West 285 328 3,500 -1,500 Descending Memphis Center
Wed 08:58:57 PM 34.6650 -91.9933 296° West 287 330 3,000 -1,300 Descending Memphis Center
Wed 08:59:33 PM 34.6619 -92.0589 267° West 257 296 2,200 -1,100 Descending Memphis Center
Wed 08:59:57 PM 34.6636 -92.0867 274° West 278 320 1,900 -197 Descending Memphis Center
Wed 09:00:34 PM 34.6669 -92.1450 274° West 253 291 2,000  Climbing Memphis Center
Wed 09:00:57 PM 34.6708 -92.1678 282° West 264 304 1,900 -300 Descending Memphis Center
Wed 09:01:34 PM 34.6617 -92.2231 259° West 205 236 1,700 -300 Descending Memphis Center
Wed 09:01:57 PM 34.6636 -92.2383 279° West 235 270 1,600 -261 Descending Memphis Center

Login

Don't have an account? Register now (free) for customized features, flight alerts, and more!